sensor_id;sensor_type;location;lat;lon;timestamp;pressure;altitude;pressure_sealevel;temperature;humidity
39357;BME280;25077;50.302;18.996;2022-12-16T00:02:22;97425.56;;;-2.90;75.06
39357;BME280;25077;50.302;18.996;2022-12-16T00:05:24;97439.34;;;-2.88;74.94
39357;BME280;25077;50.302;18.996;2022-12-16T00:08:26;97446.69;;;-2.85;74.58
39357;BME280;25077;50.302;18.996;2022-12-16T00:11:28;97437.19;;;-2.86;74.62
39357;BME280;25077;50.302;18.996;2022-12-16T00:14:33;97449.34;;;-2.85;74.66
39357;BME280;25077;50.302;18.996;2022-12-16T00:17:35;97443.78;;;-2.83;74.65
39357;BME280;25077;50.302;18.996;2022-12-16T00:20:43;97439.81;;;-2.86;74.42
39357;BME280;25077;50.302;18.996;2022-12-16T00:23:45;97439.81;;;-2.86;74.58
39357;BME280;25077;50.302;18.996;2022-12-16T00:26:48;97450.44;;;-2.86;74.40
39357;BME280;25077;50.302;18.996;2022-12-16T00:29:52;97449.94;;;-2.88;74.42
39357;BME280;25077;50.302;18.996;2022-12-16T00:32:54;97435.31;;;-2.85;74.62
39357;BME280;25077;50.302;18.996;2022-12-16T00:35:56;97422.34;;;-2.87;74.57
39357;BME280;25077;50.302;18.996;2022-12-16T00:38:58;97418.13;;;-2.88;74.63
39357;BME280;25077;50.302;18.996;2022-12-16T00:42:00;97413.72;;;-2.92;74.51
39357;BME280;25077;50.302;18.996;2022-12-16T00:45:05;97409.75;;;-2.95;74.68
39357;BME280;25077;50.302;18.996;2022-12-16T00:48:07;97401.81;;;-2.95;74.67
39357;BME280;25077;50.302;18.996;2022-12-16T00:51:09;97412.63;;;-2.91;74.71
39357;BME280;25077;50.302;18.996;2022-12-16T00:54:11;97413.41;;;-2.91;74.94
39357;BME280;25077;50.302;18.996;2022-12-16T00:57:13;97407.03;;;-2.90;74.73
39357;BME280;25077;50.302;18.996;2022-12-16T01:00:17;97407.03;;;-2.90;74.93
39357;BME280;25077;50.302;18.996;2022-12-16T01:03:19;97412.06;;;-2.88;74.86
39357;BME280;25077;50.302;18.996;2022-12-16T01:06:22;97412.84;;;-2.88;74.93
39357;BME280;25077;50.302;18.996;2022-12-16T01:09:24;97398.22;;;-2.85;74.95
39357;BME280;25077;50.302;18.996;2022-12-16T01:12:26;97388.91;;;-2.83;74.94
39357;BME280;25077;50.302;18.996;2022-12-16T01:15:29;97386.25;;;-2.83;74.77
39357;BME280;25077;50.302;18.996;2022-12-16T01:18:31;97373.78;;;-2.82;75.02
39357;BME280;25077;50.302;18.996;2022-12-16T01:21:34;97371.63;;;-2.80;75.23
39357;BME280;25077;50.302;18.996;2022-12-16T01:24:36;97375.56;;;-2.78;75.09
39357;BME280;25077;50.302;18.996;2022-12-16T01:27:38;97371.84;;;-2.77;74.87
39357;BME280;25077;50.302;18.996;2022-12-16T01:30:42;97368.50;;;-2.82;74.87
39357;BME280;25077;50.302;18.996;2022-12-16T01:33:44;97362.19;;;-2.86;74.93
39357;BME280;25077;50.302;18.996;2022-12-16T01:36:46;97359.84;;;-2.88;75.01
39357;BME280;25077;50.302;18.996;2022-12-16T01:39:49;97349.81;;;-2.91;75.44
39357;BME280;25077;50.302;18.996;2022-12-16T01:42:51;97351.19;;;-2.93;75.18
39357;BME280;25077;50.302;18.996;2022-12-16T01:45:58;97352.56;;;-2.96;75.43
39357;BME280;25077;50.302;18.996;2022-12-16T01:49:03;97333.53;;;-2.98;75.22
39357;BME280;25077;50.302;18.996;2022-12-16T01:52:13;97322.91;;;-2.98;75.43
39357;BME280;25077;50.302;18.996;2022-12-16T01:55:21;97315.19;;;-2.94;75.32
39357;BME280;25077;50.302;18.996;2022-12-16T01:58:27;97313.88;;;-2.97;75.38
39357;BME280;25077;50.302;18.996;2022-12-16T02:01:34;97314.19;;;-2.98;75.57
39357;BME280;25077;50.302;18.996;2022-12-16T02:04:36;97306.53;;;-3.00;75.34
39357;BME280;25077;50.302;18.996;2022-12-16T02:08:00;97303.38;;;-3.02;75.53
39357;BME280;25077;50.302;18.996;2022-12-16T02:11:17;97311.84;;;-3.00;75.74
39357;BME280;25077;50.302;18.996;2022-12-16T02:14:36;97307.03;;;-2.98;75.42
39357;BME280;25077;50.302;18.996;2022-12-16T02:17:48;97295.75;;;-3.04;75.60
39357;BME280;25077;50.302;18.996;2022-12-16T02:21:33;97296.03;;;-3.05;75.94
39357;BME280;25077;50.302;18.996;2022-12-16T02:25:09;97290.44;;;-3.04;75.93
39357;BME280;25077;50.302;18.996;2022-12-16T02:28:31;97283.56;;;-3.05;75.73
39357;BME280;25077;50.302;18.996;2022-12-16T02:31:43;97271.91;;;-3.04;75.96
39357;BME280;25077;50.302;18.996;2022-12-16T02:34:54;97271.69;;;-3.07;76.14
39357;BME280;25077;50.302;18.996;2022-12-16T02:38:10;97257.38;;;-3.06;75.92
39357;BME280;25077;50.302;18.996;2022-12-16T02:41:18;97257.38;;;-3.06;76.05
39357;BME280;25077;50.302;18.996;2022-12-16T02:44:26;97261.09;;;-3.07;76.04
39357;BME280;25077;50.302;18.996;2022-12-16T02:47:33;97255.78;;;-3.07;75.99
39357;BME280;25077;50.302;18.996;2022-12-16T02:50:38;97245.19;;;-3.07;76.21
39357;BME280;25077;50.302;18.996;2022-12-16T02:53:44;97247.84;;;-3.07;76.14
39357;BME280;25077;50.302;18.996;2022-12-16T02:56:53;97248.16;;;-3.09;76.31
39357;BME280;25077;50.302;18.996;2022-12-16T03:00:04;97245.59;;;-3.14;76.52
39357;BME280;25077;50.302;18.996;2022-12-16T03:03:11;97253.84;;;-3.15;76.49
39357;BME280;25077;50.302;18.996;2022-12-16T03:06:16;97244.22;;;-3.11;76.71
39357;BME280;25077;50.302;18.996;2022-12-16T03:09:22;97237.34;;;-3.12;76.94
39357;BME280;25077;50.302;18.996;2022-12-16T03:12:26;97231.09;;;-3.16;76.89
39357;BME280;25077;50.302;18.996;2022-12-16T03:15:29;97232.34;;;-3.14;76.87
39357;BME280;25077;50.302;18.996;2022-12-16T03:18:36;97217.25;;;-3.13;77.06
39357;BME280;25077;50.302;18.996;2022-12-16T03:21:43;97210.38;;;-3.14;76.96
39357;BME280;25077;50.302;18.996;2022-12-16T03:24:47;97218.31;;;-3.14;77.21
39357;BME280;25077;50.302;18.996;2022-12-16T03:27:55;97217.53;;;-3.15;77.09
39357;BME280;25077;50.302;18.996;2022-12-16T03:31:03;97210.38;;;-3.14;77.21
39357;BME280;25077;50.302;18.996;2022-12-16T03:34:13;97212.53;;;-3.16;77.05
39357;BME280;25077;50.302;18.996;2022-12-16T03:37:19;97199.31;;;-3.16;77.05
39357;BME280;25077;50.302;18.996;2022-12-16T03:40:24;97195.56;;;-3.15;76.80
39357;BME280;25077;50.302;18.996;2022-12-16T03:43:28;97188.09;;;-3.13;76.77
39357;BME280;25077;50.302;18.996;2022-12-16T03:46:31;97186.53;;;-3.14;77.25
39357;BME280;25077;50.302;18.996;2022-12-16T03:49:34;97187.53;;;-3.10;77.30
39357;BME280;25077;50.302;18.996;2022-12-16T03:52:36;97189.88;;;-3.09;77.04
39357;BME280;25077;50.302;18.996;2022-12-16T03:55:39;97188.31;;;-3.10;77.32
39357;BME280;25077;50.302;18.996;2022-12-16T03:58:41;97179.47;;;-3.05;77.07
39357;BME280;25077;50.302;18.996;2022-12-16T04:01:43;97178.09;;;-3.03;77.13
39357;BME280;25077;50.302;18.996;2022-12-16T04:04:47;97182.81;;;-2.99;77.16
39357;BME280;25077;50.302;18.996;2022-12-16T04:07:49;97187.50;;;-2.96;77.04
39357;BME280;25077;50.302;18.996;2022-12-16T04:10:52;97181.91;;;-2.95;76.86
39357;BME280;25077;50.302;18.996;2022-12-16T04:14:11;97179.56;;;-2.96;76.70
39357;BME280;25077;50.302;18.996;2022-12-16T04:17:31;97183.59;;;-2.99;76.85
39357;BME280;25077;50.302;18.996;2022-12-16T04:20:54;97180.63;;;-2.97;76.88
39357;BME280;25077;50.302;18.996;2022-12-16T04:24:16;97171.81;;;-2.93;77.17
39357;BME280;25077;50.302;18.996;2022-12-16T04:27:23;97167.50;;;-2.89;77.01
39357;BME280;25077;50.302;18.996;2022-12-16T04:30:27;97177.00;;;-2.88;76.99
39357;BME280;25077;50.302;18.996;2022-12-16T04:33:30;97167.19;;;-2.87;76.93
39357;BME280;25077;50.302;18.996;2022-12-16T04:36:51;97188.06;;;-2.86;76.85
39357;BME280;25077;50.302;18.996;2022-12-16T04:40:11;97176.13;;;-2.83;77.06
39357;BME280;25077;50.302;18.996;2022-12-16T04:43:30;97184.34;;;-2.85;76.64
39357;BME280;25077;50.302;18.996;2022-12-16T04:46:49;97170.00;;;-2.84;76.74
39357;BME280;25077;50.302;18.996;2022-12-16T04:50:09;97179.03;;;-2.85;76.60
39357;BME280;25077;50.302;18.996;2022-12-16T04:53:30;97182.78;;;-2.86;76.70
39357;BME280;25077;50.302;18.996;2022-12-16T04:56:49;97189.47;;;-2.88;76.61
39357;BME280;25077;50.302;18.996;2022-12-16T05:00:09;97179.75;;;-2.93;76.75
39357;BME280;25077;50.302;18.996;2022-12-16T05:03:30;97155.13;;;-2.93;76.55
39357;BME280;25077;50.302;18.996;2022-12-16T05:06:50;97149.81;;;-2.93;76.44
39357;BME280;25077;50.302;18.996;2022-12-16T05:10:11;97166.13;;;-3.00;76.56
39357;BME280;25077;50.302;18.996;2022-12-16T05:13:30;97170.44;;;-3.04;76.81
39357;BME280;25077;50.302;18.996;2022-12-16T05:16:49;97169.56;;;-2.99;77.01
39357;BME280;25077;50.302;18.996;2022-12-16T05:20:09;97171.91;;;-2.98;76.90
39357;BME280;25077;50.302;18.996;2022-12-16T05:23:29;97164.75;;;-2.97;76.78
39357;BME280;25077;50.302;18.996;2022-12-16T05:26:50;97149.63;;;-2.97;76.53
39357;BME280;25077;50.302;18.996;2022-12-16T05:30:10;97153.66;;;-2.99;76.94
39357;BME280;25077;50.302;18.996;2022-12-16T05:33:29;97159.53;;;-3.03;76.71
39357;BME280;25077;50.302;18.996;2022-12-16T05:36:49;97138.47;;;-3.08;76.64
39357;BME280;25077;50.302;18.996;2022-12-16T05:40:09;97148.88;;;-3.11;77.00
39357;BME280;25077;50.302;18.996;2022-12-16T05:43:31;97151.81;;;-3.13;76.92
39357;BME280;25077;50.302;18.996;2022-12-16T05:46:50;97144.16;;;-3.14;76.90
39357;BME280;25077;50.302;18.996;2022-12-16T05:50:10;97138.66;;;-3.18;76.78
39357;BME280;25077;50.302;18.996;2022-12-16T05:53:41;97141.59;;;-3.19;77.28
39357;BME280;25077;50.302;18.996;2022-12-16T05:57:01;97131.00;;;-3.19;76.96
39357;BME280;25077;50.302;18.996;2022-12-16T06:00:22;97129.94;;;-3.18;77.14
39357;BME280;25077;50.302;18.996;2022-12-16T06:03:41;97118.06;;;-3.21;76.95
39357;BME280;25077;50.302;18.996;2022-12-16T06:07:01;97133.97;;;-3.21;76.81
39357;BME280;25077;50.302;18.996;2022-12-16T06:10:21;97139.75;;;-3.19;77.03
39357;BME280;25077;50.302;18.996;2022-12-16T06:13:40;97147.91;;;-3.15;77.13
39357;BME280;25077;50.302;18.996;2022-12-16T06:17:01;97145.25;;;-3.15;77.04
39357;BME280;25077;50.302;18.996;2022-12-16T06:20:20;97125.13;;;-3.16;77.03
39357;BME280;25077;50.302;18.996;2022-12-16T06:23:40;97127.78;;;-3.16;77.25
39357;BME280;25077;50.302;18.996;2022-12-16T06:26:59;97122.50;;;-3.16;77.12
39357;BME280;25077;50.302;18.996;2022-12-16T06:30:19;97119.84;;;-3.16;76.93
39357;BME280;25077;50.302;18.996;2022-12-16T06:33:39;97118.75;;;-3.15;76.90
39357;BME280;25077;50.302;18.996;2022-12-16T06:36:59;97115.03;;;-3.14;76.97
39357;BME280;25077;50.302;18.996;2022-12-16T06:40:18;97124.53;;;-3.13;76.97
39357;BME280;25077;50.302;18.996;2022-12-16T06:43:38;97128.75;;;-3.12;76.93
39357;BME280;25077;50.302;18.996;2022-12-16T06:46:57;97109.25;;;-3.16;76.74
39357;BME280;25077;50.302;18.996;2022-12-16T06:50:18;97107.69;;;-3.17;77.15
39357;BME280;25077;50.302;18.996;2022-12-16T06:53:39;97118.28;;;-3.17;76.89
39357;BME280;25077;50.302;18.996;2022-12-16T06:56:58;97113.94;;;-3.13;77.08
39357;BME280;25077;50.302;18.996;2022-12-16T07:00:26;97136.22;;;-3.14;77.22
39357;BME280;25077;50.302;18.996;2022-12-16T07:03:45;97120.78;;;-3.12;77.09
39357;BME280;25077;50.302;18.996;2022-12-16T07:07:06;97125.03;;;-3.11;76.94
39357;BME280;25077;50.302;18.996;2022-12-16T07:10:25;97108.63;;;-3.13;76.93
39357;BME280;25077;50.302;18.996;2022-12-16T07:13:45;97101.47;;;-3.13;76.82
39357;BME280;25077;50.302;18.996;2022-12-16T07:17:04;97103.53;;;-3.10;76.89
39357;BME280;25077;50.302;18.996;2022-12-16T07:20:24;97093.94;;;-3.06;77.00
39357;BME280;25077;50.302;18.996;2022-12-16T07:23:45;97093.16;;;-3.06;76.95
39357;BME280;25077;50.302;18.996;2022-12-16T07:27:05;97102.66;;;-3.05;76.82
39357;BME280;25077;50.302;18.996;2022-12-16T07:30:24;97101.88;;;-3.06;77.00
39357;BME280;25077;50.302;18.996;2022-12-16T07:33:44;97105.88;;;-3.08;76.42
39357;BME280;25077;50.302;18.996;2022-12-16T07:37:04;97108.22;;;-3.07;76.83
39357;BME280;25077;50.302;18.996;2022-12-16T07:40:25;97087.84;;;-3.06;76.63
39357;BME280;25077;50.302;18.996;2022-12-16T07:43:44;97087.25;;;-3.03;76.65
39357;BME280;25077;50.302;18.996;2022-12-16T07:47:03;97090.38;;;-3.01;76.99
39357;BME280;25077;50.302;18.996;2022-12-16T07:50:23;97090.56;;;-2.97;76.71
39357;BME280;25077;50.302;18.996;2022-12-16T07:53:43;97075.91;;;-2.95;76.67
39357;BME280;25077;50.302;18.996;2022-12-16T07:57:04;97080.63;;;-2.92;76.62
39357;BME280;25077;50.302;18.996;2022-12-16T08:00:24;97074.97;;;-2.99;76.63
39357;BME280;25077;50.302;18.996;2022-12-16T08:03:44;97089.16;;;-2.95;76.44
39357;BME280;25077;50.302;18.996;2022-12-16T08:07:03;97096.72;;;-2.88;77.06
39357;BME280;25077;50.302;18.996;2022-12-16T08:10:22;97094.13;;;-2.80;77.10
39357;BME280;25077;50.302;18.996;2022-12-16T08:13:43;97109.69;;;-2.64;77.21
39357;BME280;25077;50.302;18.996;2022-12-16T08:17:02;97107.59;;;-2.54;76.91
39357;BME280;25077;50.302;18.996;2022-12-16T08:20:22;97111.38;;;-2.46;76.69
39357;BME280;25077;50.302;18.996;2022-12-16T08:23:56;97127.66;;;-2.39;76.62
39357;BME280;25077;50.302;18.996;2022-12-16T08:27:15;97126.75;;;-2.34;76.41
39357;BME280;25077;50.302;18.996;2022-12-16T08:30:36;97127.25;;;-2.32;76.68
39357;BME280;25077;50.302;18.996;2022-12-16T08:33:56;97128.06;;;-2.23;76.69
39357;BME280;25077;50.302;18.996;2022-12-16T08:37:16;97122.19;;;-2.20;76.11
39357;BME280;25077;50.302;18.996;2022-12-16T08:40:36;97126.09;;;-2.17;76.00
39357;BME280;25077;50.302;18.996;2022-12-16T08:43:55;97128.63;;;-2.12;76.02
39357;BME280;25077;50.302;18.996;2022-12-16T08:47:16;97128.03;;;-2.09;76.14
39357;BME280;25077;50.302;18.996;2022-12-16T08:50:36;97144.09;;;-2.06;76.00
39357;BME280;25077;50.302;18.996;2022-12-16T08:53:55;97143.78;;;-2.04;75.87
39357;BME280;25077;50.302;18.996;2022-12-16T08:57:15;97138.38;;;-1.99;75.94
39357;BME280;25077;50.302;18.996;2022-12-16T09:00:35;97142.41;;;-2.02;75.42
39357;BME280;25077;50.302;18.996;2022-12-16T09:03:56;97144.59;;;-2.04;75.86
39357;BME280;25077;50.302;18.996;2022-12-16T09:07:15;97145.84;;;-2.01;75.78
39357;BME280;25077;50.302;18.996;2022-12-16T09:10:35;97152.72;;;-2.00;76.05
39357;BME280;25077;50.302;18.996;2022-12-16T09:13:54;97153.38;;;-1.94;75.88
39357;BME280;25077;50.302;18.996;2022-12-16T09:17:14;97157.91;;;-1.95;75.89
39357;BME280;25077;50.302;18.996;2022-12-16T09:20:41;97168.41;;;-1.90;75.79
39357;BME280;25077;50.302;18.996;2022-12-16T09:23:59;97179.00;;;-1.90;75.69
39357;BME280;25077;50.302;18.996;2022-12-16T09:27:19;97183.22;;;-1.89;75.84
39357;BME280;25077;50.302;18.996;2022-12-16T09:30:39;97189.63;;;-1.90;75.70
39357;BME280;25077;50.302;18.996;2022-12-16T09:33:59;97203.69;;;-1.89;75.78
39357;BME280;25077;50.302;18.996;2022-12-16T09:37:19;97209.31;;;-1.91;75.62
39357;BME280;25077;50.302;18.996;2022-12-16T09:40:40;97209.78;;;-1.89;75.85
39357;BME280;25077;50.302;18.996;2022-12-16T09:44:07;97217.63;;;-1.84;75.73
39357;BME280;25077;50.302;18.996;2022-12-16T09:47:35;97216.25;;;-1.81;75.65
39357;BME280;25077;50.302;18.996;2022-12-16T09:51:02;97203.13;;;-1.78;75.71
39357;BME280;25077;50.302;18.996;2022-12-16T09:54:40;97205.97;;;-1.74;75.71
39357;BME280;25077;50.302;18.996;2022-12-16T09:58:04;97217.06;;;-1.72;75.56
39357;BME280;25077;50.302;18.996;2022-12-16T10:01:24;97220.03;;;-1.74;75.52
39357;BME280;25077;50.302;18.996;2022-12-16T10:04:49;97222.69;;;-1.74;75.62
39357;BME280;25077;50.302;18.996;2022-12-16T10:08:31;97215.81;;;-1.75;75.50
39357;BME280;25077;50.302;18.996;2022-12-16T10:12:00;97210.50;;;-1.75;75.84
39357;BME280;25077;50.302;18.996;2022-12-16T10:15:29;97209.88;;;-1.72;75.78
39357;BME280;25077;50.302;18.996;2022-12-16T10:18:55;97207.88;;;-1.66;75.82
39357;BME280;25077;50.302;18.996;2022-12-16T10:22:23;97214.34;;;-1.58;76.32
39357;BME280;25077;50.302;18.996;2022-12-16T10:25:48;97227.84;;;-1.46;76.01
39357;BME280;25077;50.302;18.996;2022-12-16T10:29:15;97220.41;;;-1.27;75.62
39357;BME280;25077;50.302;18.996;2022-12-16T10:32:37;97215.78;;;-1.12;75.69
39357;BME280;25077;50.302;18.996;2022-12-16T10:35:59;97214.09;;;-1.00;75.21
39357;BME280;25077;50.302;18.996;2022-12-16T10:39:23;97206.63;;;-0.89;75.24
39357;BME280;25077;50.302;18.996;2022-12-16T10:42:54;97205.41;;;-0.83;74.79
39357;BME280;25077;50.302;18.996;2022-12-16T10:46:18;97211.19;;;-0.81;74.67
39357;BME280;25077;50.302;18.996;2022-12-16T10:49:39;97215.25;;;-0.75;74.61
39357;BME280;25077;50.302;18.996;2022-12-16T10:53:09;97229.38;;;-0.66;74.93
39357;BME280;25077;50.302;18.996;2022-12-16T10:56:46;97211.06;;;-0.67;73.78
39357;BME280;25077;50.302;18.996;2022-12-16T11:00:11;97220.94;;;-0.68;74.20
39357;BME280;25077;50.302;18.996;2022-12-16T11:03:34;97211.84;;;-0.67;74.05
39357;BME280;25077;50.302;18.996;2022-12-16T11:06:54;97203.38;;;-0.69;74.17
39357;BME280;25077;50.302;18.996;2022-12-16T11:10:34;97198.25;;;-0.65;74.21
39357;BME280;25077;50.302;18.996;2022-12-16T11:14:11;97192.75;;;-0.69;73.67
39357;BME280;25077;50.302;18.996;2022-12-16T11:17:31;97185.25;;;-0.67;74.04
39357;BME280;25077;50.302;18.996;2022-12-16T11:21:07;97195.13;;;-0.58;73.91
39357;BME280;25077;50.302;18.996;2022-12-16T11:24:28;97204.53;;;-0.44;73.84
39357;BME280;25077;50.302;18.996;2022-12-16T11:28:01;97182.00;;;-0.38;73.04
39357;BME280;25077;50.302;18.996;2022-12-16T11:31:21;97176.97;;;-0.30;73.15
39357;BME280;25077;50.302;18.996;2022-12-16T11:34:41;97183.72;;;-0.16;73.10
39357;BME280;25077;50.302;18.996;2022-12-16T11:38:09;97195.28;;;-0.03;73.40
39357;BME280;25077;50.302;18.996;2022-12-16T11:41:33;97190.41;;;-0.01;72.05
39357;BME280;25077;50.302;18.996;2022-12-16T11:44:56;97217.50;;;-0.07;72.08
39357;BME280;25077;50.302;18.996;2022-12-16T11:48:32;97232.84;;;-0.30;71.72
39357;BME280;25077;50.302;18.996;2022-12-16T11:51:59;97246.91;;;-0.47;72.18
39357;BME280;25077;50.302;18.996;2022-12-16T11:55:24;97243.47;;;-0.56;72.25
39357;BME280;25077;50.302;18.996;2022-12-16T11:58:46;97240.78;;;-0.65;72.32
39357;BME280;25077;50.302;18.996;2022-12-16T12:02:11;97228.59;;;-0.66;72.91
39357;BME280;25077;50.302;18.996;2022-12-16T12:05:37;97232.94;;;-0.70;72.42
39357;BME280;25077;50.302;18.996;2022-12-16T12:09:01;97237.63;;;-0.76;72.79
39357;BME280;25077;50.302;18.996;2022-12-16T12:12:32;97246.69;;;-0.77;72.51
39357;BME280;25077;50.302;18.996;2022-12-16T12:16:00;97250.59;;;-0.83;72.45
39357;BME280;25077;50.302;18.996;2022-12-16T12:19:32;97241.94;;;-0.97;72.22
39357;BME280;25077;50.302;18.996;2022-12-16T12:22:58;97249.25;;;-1.03;72.59
39357;BME280;25077;50.302;18.996;2022-12-16T12:26:26;97255.34;;;-1.11;72.46
39357;BME280;25077;50.302;18.996;2022-12-16T12:30:01;97275.94;;;-1.17;72.61
39357;BME280;25077;50.302;18.996;2022-12-16T12:33:30;97272.31;;;-1.21;72.66
39357;BME280;25077;50.302;18.996;2022-12-16T12:37:15;97266.53;;;-1.23;72.74
39357;BME280;25077;50.302;18.996;2022-12-16T12:40:42;97275.47;;;-1.19;72.73
39357;BME280;25077;50.302;18.996;2022-12-16T12:44:09;97281.72;;;-1.14;72.92
39357;BME280;25077;50.302;18.996;2022-12-16T12:47:39;97289.56;;;-1.09;72.65
39357;BME280;25077;50.302;18.996;2022-12-16T12:51:05;97282.25;;;-1.04;73.13
39357;BME280;25077;50.302;18.996;2022-12-16T12:54:31;97281.03;;;-0.98;72.90
39357;BME280;25077;50.302;18.996;2022-12-16T12:57:53;97291.06;;;-0.95;72.91
39357;BME280;25077;50.302;18.996;2022-12-16T13:01:14;97278.09;;;-0.96;72.66
39357;BME280;25077;50.302;18.996;2022-12-16T13:04:38;97294.03;;;-0.96;72.99
39357;BME280;25077;50.302;18.996;2022-12-16T13:08:32;97298.84;;;-0.98;72.94
39357;BME280;25077;50.302;18.996;2022-12-16T13:12:20;97308.03;;;-1.04;72.60
39357;BME280;25077;50.302;18.996;2022-12-16T13:15:39;97308.63;;;-1.16;72.27
39357;BME280;25077;50.302;18.996;2022-12-16T13:22:57;97316.69;;;-1.30;72.54
39357;BME280;25077;50.302;18.996;2022-12-16T13:26:19;97318.56;;;-1.30;72.73
39357;BME280;25077;50.302;18.996;2022-12-16T13:29:39;97330.09;;;-1.35;72.48
39357;BME280;25077;50.302;18.996;2022-12-16T13:33:02;97328.31;;;-1.39;72.13
39357;BME280;25077;50.302;18.996;2022-12-16T13:36:32;97336.28;;;-1.39;72.67
39357;BME280;25077;50.302;18.996;2022-12-16T13:40:03;97339.84;;;-1.44;72.54
39357;BME280;25077;50.302;18.996;2022-12-16T13:43:44;97335.16;;;-1.47;72.77
39357;BME280;25077;50.302;18.996;2022-12-16T13:47:30;97339.81;;;-1.53;72.57
39357;BME280;25077;50.302;18.996;2022-12-16T13:50:50;97355.84;;;-1.58;72.90
39357;BME280;25077;50.302;18.996;2022-12-16T13:54:10;97367.25;;;-1.57;72.90
39357;BME280;25077;50.302;18.996;2022-12-16T13:57:35;97376.00;;;-1.57;72.90
39357;BME280;25077;50.302;18.996;2022-12-16T14:01:04;97390.19;;;-1.61;72.78
39357;BME280;25077;50.302;18.996;2022-12-16T14:04:26;97393.44;;;-1.64;72.94
39357;BME280;25077;50.302;18.996;2022-12-16T14:07:48;97405.75;;;-1.68;72.85
39357;BME280;25077;50.302;18.996;2022-12-16T14:11:17;97406.94;;;-1.75;73.06
39357;BME280;25077;50.302;18.996;2022-12-16T14:14:46;97420.31;;;-1.80;72.86
39357;BME280;25077;50.302;18.996;2022-12-16T14:18:14;97414.66;;;-1.87;72.92
39357;BME280;25077;50.302;18.996;2022-12-16T14:21:45;97402.25;;;-1.91;73.14
39357;BME280;25077;50.302;18.996;2022-12-16T14:25:12;97397.34;;;-1.98;73.20
39357;BME280;25077;50.302;18.996;2022-12-16T14:28:34;97400.69;;;-2.06;73.09
39357;BME280;25077;50.302;18.996;2022-12-16T14:31:55;97392.84;;;-2.11;73.06
39357;BME280;25077;50.302;18.996;2022-12-16T14:35:18;97391.97;;;-2.20;73.30
39357;BME280;25077;50.302;18.996;2022-12-16T14:38:46;97394.03;;;-2.31;73.38
39357;BME280;25077;50.302;18.996;2022-12-16T14:42:17;97407.56;;;-2.33;73.30
39357;BME280;25077;50.302;18.996;2022-12-16T14:45:38;97410.34;;;-2.38;73.57
39357;BME280;25077;50.302;18.996;2022-12-16T14:48:59;97409.06;;;-2.40;73.58
39357;BME280;25077;50.302;18.996;2022-12-16T14:52:20;97419.38;;;-2.39;73.73
39357;BME280;25077;50.302;18.996;2022-12-16T14:55:40;97432.94;;;-2.40;73.80
39357;BME280;25077;50.302;18.996;2022-12-16T14:59:12;97442.75;;;-2.41;73.72
39357;BME280;25077;50.302;18.996;2022-12-16T15:02:35;97452.88;;;-2.43;73.63
39357;BME280;25077;50.302;18.996;2022-12-16T15:06:00;97463.06;;;-2.50;73.50
39357;BME280;25077;50.302;18.996;2022-12-16T15:09:26;97471.41;;;-2.57;73.63
39357;BME280;25077;50.302;18.996;2022-12-16T15:12:48;97474.13;;;-2.62;73.79
39357;BME280;25077;50.302;18.996;2022-12-16T15:16:14;97479.53;;;-2.67;73.86
39357;BME280;25077;50.302;18.996;2022-12-16T15:19:39;97485.28;;;-2.79;73.83
39357;BME280;25077;50.302;18.996;2022-12-16T15:23:02;97487.22;;;-2.84;74.35
39357;BME280;25077;50.302;18.996;2022-12-16T15:26:23;97490.19;;;-2.86;74.35
39357;BME280;25077;50.302;18.996;2022-12-16T15:29:43;97496.84;;;-2.88;74.45
39357;BME280;25077;50.302;18.996;2022-12-16T15:33:05;97506.06;;;-2.86;74.45
39357;BME280;25077;50.302;18.996;2022-12-16T15:36:27;97526.72;;;-2.83;74.40
39357;BME280;25077;50.302;18.996;2022-12-16T15:39:49;97526.97;;;-2.84;74.48
39357;BME280;25077;50.302;18.996;2022-12-16T15:43:25;97523.06;;;-2.87;74.75
39357;BME280;25077;50.302;18.996;2022-12-16T15:46:47;97532.59;;;-2.86;74.85
39357;BME280;25077;50.302;18.996;2022-12-16T15:50:10;97538.66;;;-2.85;74.57
39357;BME280;25077;50.302;18.996;2022-12-16T15:53:34;97537.88;;;-2.86;74.67
39357;BME280;25077;50.302;18.996;2022-12-16T15:56:55;97540.03;;;-2.88;74.54
39357;BME280;25077;50.302;18.996;2022-12-16T16:00:21;97554.38;;;-2.89;74.65
39357;BME280;25077;50.302;18.996;2022-12-16T16:03:48;97550.63;;;-2.88;74.81
39357;BME280;25077;50.302;18.996;2022-12-16T16:07:13;97554.56;;;-2.85;75.01
39357;BME280;25077;50.302;18.996;2022-12-16T16:10:33;97557.94;;;-2.80;75.00
39357;BME280;25077;50.302;18.996;2022-12-16T16:13:54;97569.84;;;-2.77;74.94
39357;BME280;25077;50.302;18.996;2022-12-16T16:17:20;97569.03;;;-2.78;74.80
39357;BME280;25077;50.302;18.996;2022-12-16T16:20:41;97576.00;;;-2.82;74.78
39357;BME280;25077;50.302;18.996;2022-12-16T16:24:00;97586.00;;;-2.79;74.98
39357;BME280;25077;50.302;18.996;2022-12-16T16:27:20;97577.00;;;-2.78;74.98
39357;BME280;25077;50.302;18.996;2022-12-16T16:30:41;97580.91;;;-2.75;74.88
39357;BME280;25077;50.302;18.996;2022-12-16T16:34:01;97574.84;;;-2.75;74.75
39357;BME280;25077;50.302;18.996;2022-12-16T16:37:21;97583.88;;;-2.77;74.87
39357;BME280;25077;50.302;18.996;2022-12-16T16:40:41;97586.00;;;-2.79;74.80
39357;BME280;25077;50.302;18.996;2022-12-16T16:44:01;97580.69;;;-2.79;75.08
39357;BME280;25077;50.302;18.996;2022-12-16T16:47:22;97595.25;;;-2.76;74.90
39357;BME280;25077;50.302;18.996;2022-12-16T16:50:42;97596.03;;;-2.75;75.31
39357;BME280;25077;50.302;18.996;2022-12-16T16:54:01;97607.66;;;-2.71;75.06
39357;BME280;25077;50.302;18.996;2022-12-16T16:57:21;97608.06;;;-2.64;75.17
39357;BME280;25077;50.302;18.996;2022-12-16T17:00:42;97622.81;;;-2.58;75.12
39357;BME280;25077;50.302;18.996;2022-12-16T17:04:03;97624.41;;;-2.57;75.16
39357;BME280;25077;50.302;18.996;2022-12-16T17:07:22;97622.03;;;-2.59;74.83
39357;BME280;25077;50.302;18.996;2022-12-16T17:10:42;97619.94;;;-2.62;74.79
39357;BME280;25077;50.302;18.996;2022-12-16T17:14:01;97636.38;;;-2.60;74.91
39357;BME280;25077;50.302;18.996;2022-12-16T17:17:21;97646.75;;;-2.63;74.92
39357;BME280;25077;50.302;18.996;2022-12-16T17:20:42;97647.59;;;-2.68;75.14
39357;BME280;25077;50.302;18.996;2022-12-16T17:24:01;97643.75;;;-2.75;74.96